Time;durP1;ratioP1;P1;durP2;ratioP2;P2;SDS_P1;SDS_P2;PMS_P1;PMS_P2;Temp;Humidity;BMP_temperature;BMP_pressure;BME280_temperature;BME280_humidity;BME280_pressure;Samples;Min_cycle;Max_cycle;Signal;HPM_P1;HPM_P2
2023/09/25 00:01:35;;;;;;;4.80;1.98;;;13.70;99.90;;;;;;4980200;28;20124;-81
2023/09/25 00:04:25;;;;;;;4.82;2.10;;;13.80;99.90;;;;;;5010283;28;20091;-78
2023/09/25 00:07:11;;;;;;;4.88;2.40;;;13.80;99.90;;;;;;5011806;28;20113;-80
2023/09/25 00:09:57;;;;;;;4.90;2.13;;;13.80;99.90;;;;;;4993083;28;20387;-78
2023/09/25 00:12:44;;;;;;;5.88;2.10;;;13.80;99.90;;;;;;5010989;28;20062;-80
2023/09/25 00:15:30;;;;;;;6.15;2.13;;;13.80;99.90;;;;;;5012230;28;20110;-79
2023/09/25 00:18:16;;;;;;;6.30;2.55;;;13.80;99.90;;;;;;5010670;28;20053;-78
2023/09/25 00:21:03;;;;;;;4.70;2.00;;;13.80;99.90;;;;;;4992925;28;20140;-79
2023/09/25 00:23:48;;;;;;;6.32;2.20;;;13.80;99.90;;;;;;4996636;28;20081;-78
2023/09/25 00:26:34;;;;;;;6.07;2.30;;;13.70;99.90;;;;;;5009329;28;20053;-80
2023/09/25 00:29:21;;;;;;;6.32;2.00;;;13.70;99.90;;;;;;5009809;28;20057;-76
2023/09/25 00:32:07;;;;;;;5.53;2.05;;;13.70;99.90;;;;;;5009263;28;20498;-76
2023/09/25 00:34:53;;;;;;;5.75;2.08;;;13.70;99.90;;;;;;5011727;28;20050;-76
2023/09/25 00:37:39;;;;;;;5.07;2.25;;;13.60;99.90;;;;;;4995650;28;20477;-78
2023/09/25 00:40:25;;;;;;;3.53;1.83;;;13.60;99.90;;;;;;5010206;28;20057;-76
2023/09/25 00:43:13;;;;;;;5.60;2.35;;;13.60;99.90;;;;;;5010772;28;20140;-82
2023/09/25 00:45:59;;;;;;;6.40;2.40;;;13.60;99.90;;;;;;4995062;28;20096;-77
2023/09/25 00:48:45;;;;;;;8.55;3.25;;;13.60;99.90;;;;;;5000222;28;20050;-78
2023/09/25 00:51:31;;;;;;;6.30;2.20;;;13.50;99.90;;;;;;4994328;28;20078;-80
2023/09/25 00:54:18;;;;;;;6.00;2.20;;;13.50;99.90;;;;;;5009380;28;20066;-80
2023/09/25 00:57:05;;;;;;;5.07;2.40;;;13.50;99.90;;;;;;5014457;28;20054;-79
2023/09/25 00:59:52;;;;;;;8.15;2.55;;;13.50;99.90;;;;;;5014834;28;20060;-79
2023/09/25 01:02:39;;;;;;;6.55;2.45;;;13.40;99.90;;;;;;4997545;28;20125;-79
2023/09/25 01:05:26;;;;;;;5.13;2.20;;;13.40;99.90;;;;;;4995025;28;20088;-82
2023/09/25 01:08:12;;;;;;;5.70;2.47;;;13.40;99.90;;;;;;5014861;28;20183;-78
2023/09/25 01:10:59;;;;;;;6.47;2.00;;;13.40;99.90;;;;;;4999532;28;20525;-79
2023/09/25 01:13:45;;;;;;;6.90;2.58;;;13.40;99.90;;;;;;5014093;28;20050;-79
2023/09/25 01:16:32;;;;;;;5.88;2.40;;;13.30;99.90;;;;;;4983130;28;20053;-82
2023/09/25 01:19:18;;;;;;;10.52;2.63;;;13.30;99.90;;;;;;5012508;28;20061;-80
2023/09/25 01:22:04;;;;;;;8.25;2.45;;;13.30;99.90;;;;;;5012684;28;20074;-80
2023/09/25 01:24:50;;;;;;;6.07;2.38;;;13.30;99.90;;;;;;5013060;28;20140;-77
2023/09/25 01:27:38;;;;;;;8.25;2.55;;;13.30;99.90;;;;;;5015633;28;20049;-79
2023/09/25 01:30:26;;;;;;;7.20;2.42;;;13.20;99.90;;;;;;5014778;28;20132;-81
2023/09/25 01:33:12;;;;;;;5.72;2.63;;;13.20;99.90;;;;;;5013922;28;20061;-85
2023/09/25 01:35:58;;;;;;;5.72;2.58;;;13.20;99.90;;;;;;4984176;28;20054;-77
2023/09/25 01:38:46;;;;;;;6.20;2.60;;;13.10;99.90;;;;;;5014100;28;20124;-80
2023/09/25 01:41:32;;;;;;;8.35;2.70;;;13.10;99.90;;;;;;5013313;28;20104;-79
2023/09/25 01:44:18;;;;;;;4.60;2.22;;;13.10;99.90;;;;;;5013420;28;20108;-80
2023/09/25 01:47:04;;;;;;;5.55;2.60;;;13.10;99.90;;;;;;5013569;28;20445;-79
2023/09/25 01:49:50;;;;;;;7.90;2.80;;;13.00;99.90;;;;;;4994325;28;20120;-81
2023/09/25 01:52:36;;;;;;;7.68;3.25;;;13.00;99.90;;;;;;4996456;28;20486;-79
2023/09/25 01:55:22;;;;;;;5.85;2.60;;;13.00;99.90;;;;;;4999037;28;20144;-79
2023/09/25 01:58:08;;;;;;;8.40;3.03;;;13.00;99.90;;;;;;5014579;28;20456;-82
2023/09/25 02:00:54;;;;;;;5.10;2.63;;;13.00;99.90;;;;;;5011790;28;20053;-81
2023/09/25 02:03:41;;;;;;;8.20;3.17;;;12.90;99.90;;;;;;5012429;28;20068;-84
2023/09/25 02:06:27;;;;;;;8.73;3.17;;;12.90;99.90;;;;;;5012015;28;20809;-80
2023/09/25 02:09:13;;;;;;;6.88;2.63;;;12.90;99.90;;;;;;4999081;28;20104;-77
2023/09/25 02:11:59;;;;;;;9.13;2.92;;;12.90;99.90;;;;;;5015400;28;20057;-77
2023/09/25 02:14:45;;;;;;;9.90;3.88;;;12.90;99.90;;;;;;4996267;28;20057;-79
2023/09/25 02:17:32;;;;;;;6.05;2.53;;;12.90;99.90;;;;;;4995095;28;20108;-77
2023/09/25 02:20:19;;;;;;;7.60;3.05;;;12.90;99.90;;;;;;5013506;28;20111;-81
2023/09/25 02:23:06;;;;;;;5.45;3.05;;;12.90;99.90;;;;;;5012890;28;20140;-83
2023/09/25 02:25:52;;;;;;;6.47;3.40;;;12.80;99.90;;;;;;5013582;28;20436;-79
2023/09/25 02:28:38;;;;;;;7.68;3.30;;;12.80;99.90;;;;;;5012354;28;20057;-79
2023/09/25 02:31:24;;;;;;;7.03;3.17;;;12.80;99.90;;;;;;5012334;28;20070;-80
2023/09/25 02:34:14;;;;;;;8.57;2.80;;;12.80;99.90;;;;;;5009242;28;20050;-80
2023/09/25 02:37:00;;;;;;;6.22;3.05;;;12.80;99.90;;;;;;4993415;28;20057;-82
2023/09/25 02:39:46;;;;;;;7.20;3.15;;;12.80;99.90;;;;;;4977480;28;20101;-77
2023/09/25 02:42:32;;;;;;;8.55;3.67;;;12.80;99.90;;;;;;4993531;28;20097;-78
2023/09/25 02:45:18;;;;;;;6.05;3.10;;;12.70;99.90;;;;;;4992940;28;20046;-78
2023/09/25 02:48:05;;;;;;;6.43;3.63;;;12.80;99.90;;;;;;4993519;28;20109;-78
2023/09/25 02:50:51;;;;;;;5.93;2.72;;;12.70;99.90;;;;;;4982299;28;20137;-81
2023/09/25 02:53:37;;;;;;;10.00;3.50;;;12.70;99.90;;;;;;4993149;28;20073;-78
2023/09/25 02:56:23;;;;;;;7.75;3.15;;;12.70;99.90;;;;;;4992445;28;20053;-83
2023/09/25 02:59:09;;;;;;;9.43;3.63;;;12.70;99.90;;;;;;4994076;28;20438;-82
2023/09/25 03:01:55;;;;;;;11.90;3.85;;;12.70;99.90;;;;;;4993215;28;20113;-80
2023/09/25 03:04:41;;;;;;;8.15;2.95;;;12.70;99.90;;;;;;4994350;28;20085;-83
2023/09/25 03:07:27;;;;;;;5.72;3.08;;;12.70;99.90;;;;;;4991825;28;20549;-81
2023/09/25 03:10:13;;;;;;;6.63;2.90;;;12.60;99.90;;;;;;4976047;28;20050;-81
2023/09/25 03:12:59;;;;;;;8.07;3.15;;;12.70;99.90;;;;;;4975868;28;20054;-81
2023/09/25 03:15:46;;;;;;;7.40;3.30;;;12.70;99.90;;;;;;4994444;28;20070;-80
2023/09/25 03:18:32;;;;;;;6.88;3.25;;;12.60;99.90;;;;;;4992919;28;20049;-83
2023/09/25 03:21:18;;;;;;;8.15;3.40;;;12.60;99.90;;;;;;4993207;28;20502;-79
2023/09/25 03:24:04;;;;;;;14.63;3.83;;;12.60;99.90;;;;;;4992801;28;20442;-78
2023/09/25 03:26:51;;;;;;;6.43;3.38;;;12.60;99.90;;;;;;4992425;28;20073;-78
2023/09/25 03:29:37;;;;;;;10.40;3.17;;;12.60;99.90;;;;;;4977671;28;20100;-78
2023/09/25 03:32:23;;;;;;;9.52;4.05;;;12.60;99.90;;;;;;4994789;28;20093;-78
2023/09/25 03:35:10;;;;;;;6.70;3.00;;;12.60;99.90;;;;;;4975435;28;20050;-78
2023/09/25 03:37:56;;;;;;;7.60;3.22;;;12.60;99.90;;;;;;4979470;28;20455;-78
2023/09/25 03:40:42;;;;;;;7.80;3.05;;;12.60;99.90;;;;;;4992530;28;20141;-80
2023/09/25 03:43:28;;;;;;;8.50;3.40;;;12.60;99.90;;;;;;4978607;28;20094;-79
2023/09/25 03:46:15;;;;;;;10.07;3.55;;;12.50;99.90;;;;;;4974998;28;20043;-80
2023/09/25 03:49:06;;;;;;;5.90;2.92;;;12.60;99.90;;;;;;4992129;28;20050;-76
2023/09/25 03:51:52;;;;;;;7.47;3.25;;;12.50;99.90;;;;;;4991830;28;20502;-81
2023/09/25 03:54:38;;;;;;;8.43;3.40;;;12.50;99.90;;;;;;4981795;28;20059;-79
2023/09/25 03:57:24;;;;;;;5.82;3.40;;;12.50;99.90;;;;;;4972772;28;20108;-79
2023/09/25 04:00:11;;;;;;;6.13;3.22;;;12.50;99.90;;;;;;4956318;28;20055;-83
2023/09/25 04:02:57;;;;;;;7.05;3.30;;;12.50;99.90;;;;;;4990104;28;20042;-78
2023/09/25 04:05:43;;;;;;;8.18;3.42;;;12.50;99.90;;;;;;4991496;28;20050;-81
2023/09/25 04:08:29;;;;;;;5.57;3.20;;;12.50;99.90;;;;;;4991470;28;20104;-77
2023/09/25 04:11:15;;;;;;;5.40;2.72;;;12.50;99.90;;;;;;4991128;28;20133;-77
2023/09/25 04:14:01;;;;;;;6.90;3.53;;;12.50;99.90;;;;;;4992849;28;20050;-78
2023/09/25 04:16:47;;;;;;;6.38;3.00;;;12.50;99.90;;;;;;4995804;28;20054;-76
2023/09/25 04:19:33;;;;;;;8.77;3.17;;;12.40;99.90;;;;;;4975161;28;20116;-81
2023/09/25 04:22:20;;;;;;;8.23;3.42;;;12.40;99.90;;;;;;4974244;28;20093;-76
2023/09/25 04:25:08;;;;;;;6.90;2.58;;;12.40;99.90;;;;;;4989962;28;20630;-78
2023/09/25 04:27:55;;;;;;;6.32;3.00;;;12.40;99.90;;;;;;4959448;28;20050;-81
2023/09/25 04:30:41;;;;;;;5.82;2.80;;;12.30;99.90;;;;;;5016409;28;20077;-80
2023/09/25 04:33:27;;;;;;;7.97;2.97;;;12.30;99.90;;;;;;5018197;28;20048;-77
2023/09/25 04:36:13;;;;;;;7.07;3.20;;;12.30;99.90;;;;;;5023970;28;20046;-78
2023/09/25 04:38:59;;;;;;;7.50;2.83;;;12.30;99.90;;;;;;5004075;28;20058;-78
2023/09/25 04:41:46;;;;;;;5.70;3.42;;;12.30;99.90;;;;;;5006129;28;20144;-76
2023/09/25 04:44:33;;;;;;;8.10;3.30;;;12.30;99.90;;;;;;5016645;28;20207;-76
2023/09/25 04:47:19;;;;;;;12.57;3.05;;;12.30;99.90;;;;;;5013014;28;20049;-77
2023/09/25 04:50:06;;;;;;;8.32;3.63;;;12.30;99.90;;;;;;5015043;28;20145;-77
2023/09/25 04:52:52;;;;;;;5.70;3.17;;;12.30;99.90;;;;;;4995281;28;20057;-77
2023/09/25 04:55:39;;;;;;;6.97;3.00;;;12.30;99.90;;;;;;4982748;28;20069;-78
2023/09/25 04:58:25;;;;;;;8.07;3.38;;;12.30;99.90;;;;;;4999211;28;20049;-74
2023/09/25 05:01:11;;;;;;;6.07;2.75;;;12.30;99.90;;;;;;4996364;28;20112;-77
2023/09/25 05:03:57;;;;;;;7.32;3.28;;;12.30;99.90;;;;;;5014163;28;20046;-76
2023/09/25 05:06:44;;;;;;;7.88;3.30;;;12.30;99.90;;;;;;5014067;28;20057;-77
2023/09/25 05:09:30;;;;;;;6.22;2.80;;;12.30;99.90;;;;;;5014148;28;20676;-76
2023/09/25 05:12:16;;;;;;;6.28;2.83;;;12.30;99.90;;;;;;5013386;28;20413;-76
2023/09/25 05:15:02;;;;;;;8.23;3.08;;;12.30;99.90;;;;;;4996221;28;20840;-78
2023/09/25 05:17:48;;;;;;;5.75;3.30;;;12.30;99.90;;;;;;5013197;28;20046;-76
2023/09/25 05:20:35;;;;;;;5.15;2.50;;;12.30;99.90;;;;;;5013944;28;20054;-81
2023/09/25 05:23:21;;;;;;;7.15;2.95;;;12.30;99.90;;;;;;4999007;28;20076;-80
2023/09/25 05:26:07;;;;;;;8.75;3.78;;;12.30;99.90;;;;;;5013237;28;20140;-86
2023/09/25 05:28:53;;;;;;;6.32;3.00;;;12.30;99.90;;;;;;4999838;28;20061;-80
2023/09/25 05:31:39;;;;;;;12.25;2.83;;;12.30;99.90;;;;;;5014565;28;20061;-75
2023/09/25 05:34:25;;;;;;;5.47;3.08;;;12.30;99.90;;;;;;4998332;28;20069;-85
2023/09/25 05:37:11;;;;;;;8.73;3.10;;;12.30;99.90;;;;;;5014380;28;20050;-88
2023/09/25 05:39:57;;;;;;;5.50;2.40;;;12.30;99.90;;;;;;5014582;28;20057;-85
2023/09/25 05:42:45;;;;;;;6.95;2.70;;;12.30;99.90;;;;;;5015889;28;20176;-81
2023/09/25 05:45:31;;;;;;;6.03;2.88;;;12.30;99.90;;;;;;5020194;28;20104;-81
2023/09/25 05:48:17;;;;;;;6.38;3.40;;;12.40;99.90;;;;;;5001063;28;20494;-83
2023/09/25 05:51:03;;;;;;;9.00;2.88;;;12.40;99.90;;;;;;5015151;28;20501;-81
2023/09/25 05:53:50;;;;;;;5.20;2.60;;;12.40;99.90;;;;;;4996668;28;20097;-83
2023/09/25 05:56:36;;;;;;;5.30;2.42;;;12.50;99.90;;;;;;4996691;28;20588;-82
2023/09/25 05:59:22;;;;;;;5.55;2.60;;;12.50;99.90;;;;;;5013213;28;20050;-80
2023/09/25 06:02:08;;;;;;;5.28;2.58;;;12.50;99.90;;;;;;4996237;28;20050;-81
2023/09/25 06:04:54;;;;;;;6.45;3.00;;;12.50;99.90;;;;;;5013762;28;20735;-82
2023/09/25 06:07:42;;;;;;;6.55;3.05;;;12.50;99.90;;;;;;5012663;28;20092;-79
2023/09/25 06:10:28;;;;;;;8.70;3.17;;;12.60;99.90;;;;;;5013274;28;20050;-82
2023/09/25 06:13:14;;;;;;;5.25;2.90;;;12.60;99.90;;;;;;5015266;28;20068;-80
2023/09/25 06:16:00;;;;;;;5.90;2.45;;;12.60;99.90;;;;;;4998232;28;20054;-82
2023/09/25 06:18:47;;;;;;;6.10;3.03;;;12.70;99.90;;;;;;5012982;28;20133;-77
2023/09/25 06:21:34;;;;;;;6.80;3.35;;;12.70;99.90;;;;;;5012763;28;20093;-78
2023/09/25 06:24:21;;;;;;;20.75;3.22;;;12.80;99.90;;;;;;5012108;28;20053;-78
2023/09/25 06:27:10;;;;;;;7.55;2.65;;;12.80;99.90;;;;;;5012235;28;20501;-78
2023/09/25 06:29:57;;;;;;;5.97;2.90;;;12.90;99.90;;;;;;4980631;28;20057;-78
2023/09/25 06:32:43;;;;;;;5.32;2.28;;;12.90;99.90;;;;;;5011956;28;20045;-73
2023/09/25 06:35:29;;;;;;;8.10;2.80;;;13.00;99.90;;;;;;4994891;28;20141;-79
2023/09/25 06:38:16;;;;;;;4.82;2.70;;;13.00;99.90;;;;;;4981554;28;20712;-76
2023/09/25 06:41:02;;;;;;;4.80;2.40;;;13.10;99.90;;;;;;5012276;28;20092;-76
2023/09/25 06:43:48;;;;;;;6.10;2.60;;;13.20;99.90;;;;;;4997841;28;20093;-78
2023/09/25 06:46:34;;;;;;;7.93;3.30;;;13.20;99.90;;;;;;5013901;28;20467;-78
2023/09/25 06:49:22;;;;;;;6.53;2.95;;;13.30;99.90;;;;;;5002658;28;20049;-78
2023/09/25 06:52:08;;;;;;;4.25;2.30;;;13.30;99.90;;;;;;5031710;28;20049;-73
2023/09/25 06:54:55;;;;;;;6.88;2.35;;;13.40;99.90;;;;;;5030433;28;20065;-76
2023/09/25 06:57:41;;;;;;;8.32;3.20;;;13.50;99.90;;;;;;5030447;28;20106;-83
2023/09/25 07:00:27;;;;;;;5.43;2.38;;;13.50;99.90;;;;;;5025218;28;20136;-81
2023/09/25 07:03:13;;;;;;;5.90;1.88;;;13.60;99.90;;;;;;5019862;28;20042;-77
2023/09/25 07:06:00;;;;;;;7.93;2.72;;;13.70;99.90;;;;;;5011050;28;20085;-79
2023/09/25 07:08:46;;;;;;;5.57;2.72;;;13.70;99.90;;;;;;5004068;28;20052;-74
2023/09/25 07:11:32;;;;;;;6.25;2.72;;;13.80;99.90;;;;;;5010724;28;20050;-82
2023/09/25 07:14:18;;;;;;;6.75;2.30;;;13.90;99.90;;;;;;5011164;28;20041;-78
2023/09/25 07:17:04;;;;;;;7.85;2.35;;;14.00;99.90;;;;;;4994626;28;20050;-72
2023/09/25 07:19:51;;;;;;;5.90;2.28;;;14.10;99.90;;;;;;4994533;28;20470;-78
2023/09/25 07:22:37;;;;;;;5.18;2.40;;;14.20;99.90;;;;;;5011331;28;20053;-78
2023/09/25 07:25:23;;;;;;;4.95;2.22;;;14.20;99.90;;;;;;5011625;28;20085;-77
2023/09/25 07:28:11;;;;;;;5.63;2.05;;;14.30;99.90;;;;;;4994740;28;20477;-81
2023/09/25 07:30:59;;;;;;;4.65;2.00;;;14.40;99.90;;;;;;4995697;28;20053;-78
2023/09/25 07:33:45;;;;;;;4.85;2.47;;;14.40;99.90;;;;;;5014077;28;20050;-80
2023/09/25 07:36:31;;;;;;;5.50;2.10;;;14.40;99.90;;;;;;5015519;28;20045;-84
2023/09/25 07:39:22;;;;;;;6.65;2.20;;;14.40;99.90;;;;;;4995942;28;20041;-82
2023/09/25 07:42:10;;;;;;;6.25;2.22;;;14.50;99.90;;;;;;5012609;28;20136;-81
2023/09/25 07:44:56;;;;;;;7.75;2.42;;;14.50;99.90;;;;;;5011555;28;20053;-80
2023/09/25 07:47:43;;;;;;;12.55;2.13;;;14.50;99.90;;;;;;5012299;28;20497;-82
2023/09/25 07:50:29;;;;;;;5.82;2.50;;;14.50;99.90;;;;;;4996084;28;20046;-77
2023/09/25 07:53:15;;;;;;;5.72;1.88;;;14.60;99.90;;;;;;4996428;28;20054;-78
2023/09/25 07:56:03;;;;;;;6.18;2.20;;;14.60;99.90;;;;;;4993125;28;20047;-79
2023/09/25 07:58:49;;;;;;;6.57;1.85;;;14.70;99.90;;;;;;4975637;28;20057;-77
2023/09/25 08:01:38;;;;;;;4.20;1.70;;;14.80;99.90;;;;;;4991373;28;20568;-76
2023/09/25 08:04:25;;;;;;;4.97;1.92;;;14.80;99.90;;;;;;4992045;28;20050;-78
2023/09/25 08:07:11;;;;;;;4.45;2.00;;;14.90;99.90;;;;;;4992045;28;20064;-77
2023/09/25 08:09:59;;;;;;;5.28;2.10;;;15.00;99.90;;;;;;4977712;28;20050;-76
2023/09/25 08:12:46;;;;;;;4.70;1.95;;;15.00;99.90;;;;;;4991700;28;20057;-77
2023/09/25 08:15:33;;;;;;;4.13;2.08;;;15.10;99.90;;;;;;4991617;28;20085;-77
2023/09/25 08:18:19;;;;;;;9.85;3.13;;;15.10;99.90;;;;;;4991846;28;20051;-76
2023/09/25 08:21:06;;;;;;;5.72;2.60;;;15.10;99.90;;;;;;4992343;28;20081;-79
2023/09/25 08:23:51;;;;;;;6.50;2.20;;;15.20;99.90;;;;;;4973584;28;20074;-75
2023/09/25 08:26:39;;;;;;;6.60;2.10;;;15.30;99.90;;;;;;4973075;28;20135;-74
2023/09/25 08:29:25;;;;;;;5.47;1.70;;;15.30;99.90;;;;;;4992295;28;20054;-75
2023/09/25 08:32:13;;;;;;;7.53;2.10;;;15.40;99.90;;;;;;4991380;28;20081;-78
2023/09/25 08:35:00;;;;;;;4.40;2.30;;;15.50;99.90;;;;;;4974899;28;20145;-77
2023/09/25 08:37:46;;;;;;;7.63;2.85;;;15.60;99.90;;;;;;4973820;28;20054;-75
2023/09/25 08:40:36;;;;;;;4.50;2.05;;;15.60;99.90;;;;;;4990703;28;20043;-77
2023/09/25 08:43:22;;;;;;;3.72;1.95;;;15.70;99.90;;;;;;4991944;28;20087;-79
2023/09/25 08:46:09;;;;;;;6.18;1.90;;;15.90;99.90;;;;;;4990700;28;20478;-79
2023/09/25 08:49:01;;;;;;;6.82;2.28;;;16.00;99.90;;;;;;4989931;28;20046;-78
2023/09/25 08:51:47;;;;;;;4.43;2.05;;;16.10;99.90;;;;;;4988876;28;20061;-80
2023/09/25 08:54:33;;;;;;;6.22;1.98;;;16.20;99.90;;;;;;4990291;28;20093;-79
2023/09/25 08:57:20;;;;;;;4.57;1.63;;;16.30;99.90;;;;;;4973950;28;20047;-77
2023/09/25 09:00:14;;;;;;;5.15;1.60;;;16.50;99.90;;;;;;4960081;28;20413;-75
2023/09/25 09:03:00;;;;;;;4.40;1.40;;;16.70;99.90;;;;;;4990412;28;20114;-77
2023/09/25 09:05:47;;;;;;;5.20;1.50;;;16.90;99.90;;;;;;4970957;28;20047;-77
2023/09/25 09:08:36;;;;;;;3.47;1.50;;;17.10;99.90;;;;;;4989684;28;20137;-76
2023/09/25 09:11:22;;;;;;;5.43;2.20;;;17.20;99.90;;;;;;4972872;28;20217;-81
2023/09/25 09:14:08;;;;;;;7.50;1.83;;;17.30;99.90;;;;;;4990849;28;20046;-77
2023/09/25 09:17:00;;;;;;;4.03;1.55;;;17.40;99.90;;;;;;4993254;28;20141;-76
2023/09/25 09:19:46;;;;;;;5.18;1.77;;;17.60;99.90;;;;;;4994454;28;20446;-79
2023/09/25 09:22:33;;;;;;;4.78;1.70;;;17.60;99.90;;;;;;4970526;28;20058;-77
2023/09/25 09:25:27;;;;;;;5.13;1.60;;;17.70;99.90;;;;;;4991859;28;20046;-78
2023/09/25 09:28:13;;;;;;;6.60;1.83;;;17.80;99.90;;;;;;4991556;28;20439;-80
2023/09/25 09:31:01;;;;;;;4.55;1.85;;;17.90;99.90;;;;;;4974613;28;20422;-77
2023/09/25 09:33:48;;;;;;;4.60;1.80;;;18.20;99.90;;;;;;4993164;28;20046;-80
2023/09/25 09:36:34;;;;;;;5.43;1.98;;;18.20;99.90;;;;;;4990750;28;20046;-76
2023/09/25 09:39:22;;;;;;;5.80;2.00;;;18.30;99.90;;;;;;4973052;28;20066;-77
2023/09/25 09:42:09;;;;;;;3.85;1.67;;;18.40;99.90;;;;;;4974654;28;20145;-81
2023/09/25 09:44:55;;;;;;;4.63;1.70;;;18.50;99.90;;;;;;4961492;28;20590;-79
2023/09/25 09:47:43;;;;;;;5.95;2.00;;;18.70;99.90;;;;;;4975482;28;20724;-81
2023/09/25 09:50:31;;;;;;;4.50;2.03;;;18.90;99.90;;;;;;4958059;28;20066;-81
2023/09/25 09:53:17;;;;;;;6.32;1.80;;;19.20;99.90;;;;;;4974587;28;20051;-80
2023/09/25 09:56:04;;;;;;;4.20;1.50;;;19.40;99.90;;;;;;4973662;28;20038;-78
2023/09/25 09:58:51;;;;;;;6.30;1.67;;;19.50;99.90;;;;;;4972999;28;20057;-80
2023/09/25 10:01:42;;;;;;;3.75;1.50;;;19.50;99.10;;;;;;4975570;28;20507;-80
2023/09/25 10:04:28;;;;;;;4.38;1.48;;;19.40;99.10;;;;;;4977633;28;20138;-77
2023/09/25 10:07:15;;;;;;;4.90;1.92;;;19.30;99.00;;;;;;4975156;28;20043;-77
2023/09/25 10:10:06;;;;;;;5.47;1.85;;;19.30;98.80;;;;;;4974728;28;20066;-73
2023/09/25 10:12:57;;;;;;;11.13;2.20;;;19.40;99.40;;;;;;4956991;28;20061;-75
2023/09/25 10:16:00;;;;;;;7.32;2.28;;;19.50;99.10;;;;;;4974609;28;20051;-75
2023/09/25 10:18:52;;;;;;;7.25;1.80;;;19.60;99.20;;;;;;4974681;28;20054;-75
2023/09/25 10:21:38;;;;;;;6.05;2.00;;;20.10;99.60;;;;;;4973413;28;20054;-76
2023/09/25 10:24:25;;;;;;;4.75;1.70;;;20.40;98.60;;;;;;4973819;28;20047;-77
2023/09/25 10:27:13;;;;;;;12.63;2.47;;;20.20;97.90;;;;;;4972857;28;20502;-74
2023/09/25 10:30:18;;;;;;;5.90;1.70;;;20.10;97.60;;;;;;4974036;28;20051;-76
2023/09/25 10:33:04;;;;;;;3.80;1.70;;;20.00;97.90;;;;;;4975118;28;20047;-75
2023/09/25 10:35:57;;;;;;;4.13;1.75;;;20.00;97.90;;;;;;4974296;28;20062;-72
2023/09/25 10:38:43;;;;;;;5.63;2.15;;;19.80;98.10;;;;;;4990665;28;20077;-71
2023/09/25 10:41:30;;;;;;;6.88;2.13;;;19.90;98.30;;;;;;4989963;28;20062;-77
2023/09/25 10:44:17;;;;;;;4.97;2.08;;;19.80;98.40;;;;;;4973022;28;20056;-73
2023/09/25 10:47:06;;;;;;;6.10;2.30;;;20.00;98.70;;;;;;4993291;28;20150;-75
2023/09/25 10:49:53;;;;;;;5.05;2.05;;;20.40;98.10;;;;;;4972286;28;20054;-78
2023/09/25 10:52:39;;;;;;;6.53;1.70;;;20.20;97.60;;;;;;4976038;28;20513;-73
2023/09/25 10:55:25;;;;;;;5.22;2.03;;;20.80;98.00;;;;;;5007222;28;20054;-75
2023/09/25 10:58:12;;;;;;;7.05;2.40;;;21.20;97.40;;;;;;5011040;28;20081;-76
2023/09/25 11:00:59;;;;;;;4.30;1.77;;;21.70;96.50;;;;;;5012104;28;20046;-76
2023/09/25 11:03:45;;;;;;;5.47;1.92;;;21.80;95.70;;;;;;5013297;28;20405;-74
2023/09/25 11:06:31;;;;;;;6.72;2.22;;;21.80;96.50;;;;;;5010172;28;20053;-74
2023/09/25 11:09:18;;;;;;;7.30;1.80;;;21.90;96.70;;;;;;5011847;28;20045;-76
2023/09/25 11:12:04;;;;;;;6.43;1.52;;;22.10;96.30;;;;;;5009002;28;20054;-75
2023/09/25 11:14:51;;;;;;;5.72;2.10;;;22.30;96.10;;;;;;5011268;28;20053;-76
2023/09/25 11:17:40;;;;;;;4.47;1.67;;;22.30;96.00;;;;;;5012016;28;20137;-77
2023/09/25 11:20:33;;;;;;;4.63;1.90;;;21.90;95.70;;;;;;5010085;28;20060;-78
2023/09/25 11:23:19;;;;;;;6.32;1.83;;;21.80;95.80;;;;;;4991792;28;20464;-77
2023/09/25 11:26:05;;;;;;;3.55;1.50;;;21.60;96.20;;;;;;5011277;28;20412;-76
2023/09/25 11:28:54;;;;;;;4.68;2.15;;;21.60;96.40;;;;;;4993679;28;20057;-77
2023/09/25 11:31:40;;;;;;;9.40;2.60;;;21.60;96.10;;;;;;5011605;28;20112;-75
2023/09/25 11:34:26;;;;;;;5.03;1.80;;;21.60;96.10;;;;;;5011065;28;20052;-75
2023/09/25 11:37:22;;;;;;;4.82;2.10;;;21.60;96.30;;;;;;4993308;28;20460;-76
2023/09/25 11:40:08;;;;;;;6.90;2.35;;;21.50;96.30;;;;;;5011404;28;20057;-79
2023/09/25 11:42:56;;;;;;;7.22;1.70;;;21.50;96.60;;;;;;4994778;28;20072;-73
2023/09/25 11:45:43;;;;;;;5.25;2.22;;;21.60;96.50;;;;;;5012491;28;20606;-73
2023/09/25 11:48:29;;;;;;;6.07;1.92;;;22.20;96.90;;;;;;5011726;28;20049;-77
2023/09/25 11:51:15;;;;;;;4.75;1.83;;;22.80;96.20;;;;;;5012534;28;20049;-78
2023/09/25 11:54:01;;;;;;;5.95;2.05;;;23.40;95.10;;;;;;5011171;28;20390;-75
2023/09/25 11:56:47;;;;;;;6.28;2.30;;;23.70;94.90;;;;;;5010762;28;20427;-75
2023/09/25 11:59:33;;;;;;;7.03;2.75;;;24.10;94.00;;;;;;5010898;28;20041;-77
2023/09/25 12:02:19;;;;;;;9.77;3.03;;;24.50;93.40;;;;;;4997690;28;20501;-76
2023/09/25 12:05:06;;;;;;;4.75;2.35;;;24.50;93.20;;;;;;5011589;28;20136;-74
2023/09/25 12:07:52;;;;;;;5.10;1.60;;;24.80;92.60;;;;;;4993962;28;20061;-77
2023/09/25 12:10:39;;;;;;;6.45;2.58;;;24.80;91.60;;;;;;5012129;28;20046;-77
2023/09/25 12:13:25;;;;;;;5.03;1.88;;;25.20;91.60;;;;;;5016785;28;20128;-77
2023/09/25 12:16:11;;;;;;;7.65;2.17;;;26.00;90.70;;;;;;5010795;28;20054;-75
2023/09/25 12:18:57;;;;;;;5.40;1.77;;;26.30;89.60;;;;;;5011634;28;20050;-75
2023/09/25 12:21:43;;;;;;;5.95;2.35;;;27.00;88.80;;;;;;5011300;28;20046;-79
2023/09/25 12:24:29;;;;;;;6.68;2.10;;;27.50;86.20;;;;;;5012020;28;20049;-77
2023/09/25 12:27:15;;;;;;;4.60;1.95;;;28.30;83.80;;;;;;4993897;28;20517;-79
2023/09/25 12:30:02;;;;;;;6.55;2.90;;;28.80;81.70;;;;;;5010697;28;20045;-77
2023/09/25 12:32:48;;;;;;;5.80;2.08;;;29.00;79.90;;;;;;5010718;28;20046;-79
2023/09/25 12:35:36;;;;;;;5.55;2.53;;;29.90;78.00;;;;;;5011455;28;20053;-81
2023/09/25 12:38:22;;;;;;;5.40;2.40;;;30.20;75.90;;;;;;4996748;28;20046;-76
2023/09/25 12:41:08;;;;;;;5.88;1.95;;;29.80;75.50;;;;;;5009409;28;20387;-77
2023/09/25 12:43:54;;;;;;;7.57;2.33;;;30.40;75.80;;;;;;4992050;28;20050;-80
2023/09/25 12:46:40;;;;;;;5.80;2.42;;;31.10;74.40;;;;;;5011171;28;20513;-80
2023/09/25 12:49:26;;;;;;;5.00;2.03;;;31.80;72.90;;;;;;5012309;28;20061;-81
2023/09/25 12:52:13;;;;;;;6.93;1.98;;;32.70;70.80;;;;;;5002730;28;20070;-82
2023/09/25 12:55:00;;;;;;;4.88;2.22;;;32.70;68.80;;;;;;5015467;28;20088;-76
2023/09/25 12:57:50;;;;;;;5.57;2.55;;;32.40;67.70;;;;;;5014455;28;20501;-77
2023/09/25 13:00:36;;;;;;;5.32;2.25;;;32.90;66.70;;;;;;4997890;28;20053;-81
2023/09/25 13:03:22;;;;;;;6.35;2.10;;;33.50;66.70;;;;;;5015216;28;20050;-75
2023/09/25 13:06:08;;;;;;;6.97;2.40;;;33.10;66.50;;;;;;5015637;28;20136;-79
2023/09/25 13:08:54;;;;;;;4.20;1.67;;;33.80;64.90;;;;;;5015867;28;20052;-80
2023/09/25 13:11:41;;;;;;;4.68;2.10;;;34.00;63.00;;;;;;5015054;28;20065;-77
2023/09/25 13:14:27;;;;;;;7.43;2.63;;;33.90;62.40;;;;;;5013979;28;20057;-76
2023/09/25 13:17:13;;;;;;;5.68;2.20;;;33.80;62.10;;;;;;5015323;28;20192;-81
2023/09/25 13:20:00;;;;;;;5.35;2.10;;;33.60;61.20;;;;;;5007278;28;20105;-77
2023/09/25 13:22:46;;;;;;;5.10;1.70;;;34.00;61.30;;;;;;5014623;28;20060;-82
2023/09/25 13:25:32;;;;;;;5.45;2.00;;;33.60;60.60;;;;;;5014667;28;20073;-80
2023/09/25 13:28:18;;;;;;;5.40;2.03;;;33.70;61.00;;;;;;4996019;28;20056;-80
2023/09/25 13:31:04;;;;;;;6.43;2.40;;;33.60;60.80;;;;;;4997689;28;20173;-79
2023/09/25 13:33:50;;;;;;;5.28;2.13;;;33.00;61.40;;;;;;5014954;28;20050;-78
2023/09/25 13:36:36;;;;;;;6.07;2.33;;;33.00;60.10;;;;;;5014169;28;20057;-77
2023/09/25 13:39:23;;;;;;;5.20;2.30;;;33.10;60.00;;;;;;5013965;28;20718;-80
2023/09/25 13:42:11;;;;;;;4.22;2.00;;;33.10;60.00;;;;;;4996744;28;20435;-75
2023/09/25 13:44:57;;;;;;;4.85;2.15;;;33.20;60.80;;;;;;5013546;28;20045;-78
2023/09/25 13:47:43;;;;;;;5.75;2.35;;;33.60;60.90;;;;;;5013992;28;20054;-80
2023/09/25 13:50:29;;;;;;;4.80;1.73;;;32.50;60.60;;;;;;4996163;28;20053;-78
2023/09/25 13:53:15;;;;;;;5.70;2.40;;;31.50;62.50;;;;;;4995396;28;20050;-77
2023/09/25 13:56:07;;;;;;;6.47;2.70;;;31.60;63.50;;;;;;4995306;28;20050;-80
2023/09/25 13:58:53;;;;;;;4.32;2.13;;;32.30;62.20;;;;;;4993538;28;20513;-79
2023/09/25 14:01:40;;;;;;;5.55;1.77;;;33.00;61.30;;;;;;4997008;28;20053;-78
2023/09/25 14:04:26;;;;;;;6.63;2.00;;;33.20;60.10;;;;;;4995252;28;20060;-79
2023/09/25 14:07:12;;;;;;;6.88;2.08;;;33.90;60.10;;;;;;4994698;28;20051;-78
2023/09/25 14:09:58;;;;;;;5.15;1.90;;;32.30;60.10;;;;;;4993528;28;20105;-78
2023/09/25 14:12:46;;;;;;;4.43;1.92;;;31.10;61.50;;;;;;4994823;28;20129;-77
2023/09/25 14:15:33;;;;;;;5.05;2.05;;;31.00;62.30;;;;;;4994011;28;20061;-77
2023/09/25 14:18:20;;;;;;;7.43;2.50;;;31.30;63.00;;;;;;4994153;28;20410;-76
2023/09/25 14:21:06;;;;;;;6.20;2.00;;;32.30;61.50;;;;;;4993680;28;20461;-77
2023/09/25 14:23:52;;;;;;;7.63;2.10;;;32.80;61.00;;;;;;4992608;28;20463;-79
2023/09/25 14:26:38;;;;;;;9.55;2.63;;;33.30;59.50;;;;;;4993284;28;20065;-79